SNOW

Not for real navigation. The accuracy of this data is not assured See disclaimer for more information



ICAO NAME COUNTRY WIND Kt GUST Kt VIS m TEMP/DEW C BARO METAR
LIVF Frontone Italy 8 0 300 0/-1 29.62 LIVF 211755Z 26008KT 0300 -SN FZFG VV/// M00/M01 Q1003 RMK MON INVIS VAL INVIS VIS MIN 0300
LQTZ Tuzla Bosnia and Herzegovina 1 0 500 0/0 29.85 LQTZ 211830Z VRB01KT 0500 R09/0450N SN FG OVC002 00/00 Q1011
PAPO Point Hope, Point Hope Airport AK United States 14 0 800 -4/-4 29.98 PAPO 211856Z AUTO 16014KT 0.5SM -SN FZFG OVC002 M04/M04 A2998 RMK AO2 SNB31 SLP153 P0000 T10391044 F
KPSN Palestine, Palestine Municipal TX United States 8 14 1200 8/8 30.13 KPSN 211855Z AUTO 03008G14KT 0.75SM -SN OVC006 08/08 A3013 RMK AO2 P0006 T00900087
PAFS 3 0 1200 -5/-6 30.29 PAFS 211858Z AUTO 08003KT 0.75SM -SN BR SCT011 OVC017 M05/M06 A3029 RMK AO2 P0000 FZRANO

Show more